sensor_id;sensor_type;location;lat;lon;timestamp;temperature;humidity
47546;DHT22;50104;52.002;4.688;2022-12-29T00:01:14;11.00;93.40
47546;DHT22;50104;52.002;4.688;2022-12-29T00:06:14;11.00;93.40
47546;DHT22;50104;52.002;4.688;2022-12-29T00:11:21;11.00;93.20
47546;DHT22;50104;52.002;4.688;2022-12-29T00:16:23;11.00;93.30
47546;DHT22;50104;52.002;4.688;2022-12-29T00:21:25;11.00;93.40
47546;DHT22;50104;52.002;4.688;2022-12-29T00:26:53;11.00;93.30
47546;DHT22;50104;52.002;4.688;2022-12-29T00:32:21;11.00;93.30
47546;DHT22;50104;52.002;4.688;2022-12-29T00:37:43;11.00;93.40
47546;DHT22;50104;52.002;4.688;2022-12-29T00:43:05;11.00;93.30
47546;DHT22;50104;52.002;4.688;2022-12-29T00:48:24;11.10;93.40
47546;DHT22;50104;52.002;4.688;2022-12-29T00:53:43;11.10;93.20
47546;DHT22;50104;52.002;4.688;2022-12-29T00:58:44;11.10;93.20
47546;DHT22;50104;52.002;4.688;2022-12-29T01:03:45;11.10;93.30
47546;DHT22;50104;52.002;4.688;2022-12-29T01:08:46;11.10;93.10
47546;DHT22;50104;52.002;4.688;2022-12-29T01:13:47;11.10;93.20
47546;DHT22;50104;52.002;4.688;2022-12-29T01:18:47;11.00;93.40
47546;DHT22;50104;52.002;4.688;2022-12-29T01:23:48;11.10;93.70
47546;DHT22;50104;52.002;4.688;2022-12-29T01:28:49;11.00;93.50
47546;DHT22;50104;52.002;4.688;2022-12-29T01:33:50;11.00;93.60
47546;DHT22;50104;52.002;4.688;2022-12-29T01:38:51;11.10;93.90
47546;DHT22;50104;52.002;4.688;2022-12-29T01:43:57;11.00;93.60
47546;DHT22;50104;52.002;4.688;2022-12-29T01:54:17;11.10;94.00
47546;DHT22;50104;52.002;4.688;2022-12-29T01:59:26;11.10;93.60
47546;DHT22;50104;52.002;4.688;2022-12-29T02:04:32;11.10;93.30
47546;DHT22;50104;52.002;4.688;2022-12-29T02:09:33;11.10;93.00
47546;DHT22;50104;52.002;4.688;2022-12-29T02:14:34;11.00;93.00
47546;DHT22;50104;52.002;4.688;2022-12-29T02:31:22;11.00;93.00
47546;DHT22;50104;52.002;4.688;2022-12-29T02:36:48;11.00;92.90
47546;DHT22;50104;52.002;4.688;2022-12-29T02:42:02;10.90;92.90
47546;DHT22;50104;52.002;4.688;2022-12-29T02:52:37;10.90;92.90
47546;DHT22;50104;52.002;4.688;2022-12-29T02:57:40;10.80;93.00
47546;DHT22;50104;52.002;4.688;2022-12-29T03:13:46;10.70;91.80
47546;DHT22;50104;52.002;4.688;2022-12-29T03:19:29;10.70;91.70
47546;DHT22;50104;52.002;4.688;2022-12-29T03:24:39;10.60;91.80
47546;DHT22;50104;52.002;4.688;2022-12-29T03:29:47;10.60;91.80
47546;DHT22;50104;52.002;4.688;2022-12-29T03:34:54;10.50;92.20
47546;DHT22;50104;52.002;4.688;2022-12-29T03:39:56;10.50;92.30
47546;DHT22;50104;52.002;4.688;2022-12-29T03:44:57;10.50;92.20
47546;DHT22;50104;52.002;4.688;2022-12-29T03:49:58;10.50;92.00
47546;DHT22;50104;52.002;4.688;2022-12-29T03:54:58;10.50;92.30
47546;DHT22;50104;52.002;4.688;2022-12-29T03:59:59;10.40;92.30
47546;DHT22;50104;52.002;4.688;2022-12-29T04:05:00;10.40;92.40
47546;DHT22;50104;52.002;4.688;2022-12-29T04:10:01;10.40;92.40
47546;DHT22;50104;52.002;4.688;2022-12-29T04:15:02;10.40;92.50
47546;DHT22;50104;52.002;4.688;2022-12-29T04:20:04;10.30;92.30
47546;DHT22;50104;52.002;4.688;2022-12-29T04:25:24;10.40;92.10
47546;DHT22;50104;52.002;4.688;2022-12-29T04:30:25;10.40;91.90
47546;DHT22;50104;52.002;4.688;2022-12-29T04:35:26;10.30;92.00
47546;DHT22;50104;52.002;4.688;2022-12-29T04:40:26;10.30;92.00
47546;DHT22;50104;52.002;4.688;2022-12-29T04:45:27;10.30;91.80
47546;DHT22;50104;52.002;4.688;2022-12-29T04:50:28;10.20;91.90
47546;DHT22;50104;52.002;4.688;2022-12-29T04:55:29;10.20;91.80
47546;DHT22;50104;52.002;4.688;2022-12-29T05:00:30;10.20;91.90
47546;DHT22;50104;52.002;4.688;2022-12-29T05:05:30;10.20;92.10
47546;DHT22;50104;52.002;4.688;2022-12-29T05:10:31;10.10;92.30
47546;DHT22;50104;52.002;4.688;2022-12-29T05:15:32;10.10;92.50
47546;DHT22;50104;52.002;4.688;2022-12-29T05:20:33;10.10;92.60
47546;DHT22;50104;52.002;4.688;2022-12-29T05:25:34;10.10;92.70
47546;DHT22;50104;52.002;4.688;2022-12-29T05:30:34;10.10;92.60
47546;DHT22;50104;52.002;4.688;2022-12-29T05:35:35;10.10;92.60
47546;DHT22;50104;52.002;4.688;2022-12-29T05:40:36;10.10;92.60
47546;DHT22;50104;52.002;4.688;2022-12-29T05:45:37;10.10;92.60
47546;DHT22;50104;52.002;4.688;2022-12-29T05:50:37;10.00;92.60
47546;DHT22;50104;52.002;4.688;2022-12-29T05:55:38;10.00;92.60
47546;DHT22;50104;52.002;4.688;2022-12-29T06:00:40;10.00;92.80
47546;DHT22;50104;52.002;4.688;2022-12-29T06:05:40;10.00;92.70
47546;DHT22;50104;52.002;4.688;2022-12-29T06:10:41;10.00;92.70
47546;DHT22;50104;52.002;4.688;2022-12-29T06:15:42;9.90;92.80
47546;DHT22;50104;52.002;4.688;2022-12-29T06:20:43;9.90;92.80
47546;DHT22;50104;52.002;4.688;2022-12-29T06:25:44;9.90;92.60
47546;DHT22;50104;52.002;4.688;2022-12-29T06:30:47;9.80;92.60
47546;DHT22;50104;52.002;4.688;2022-12-29T06:35:49;9.80;92.70
47546;DHT22;50104;52.002;4.688;2022-12-29T06:40:50;9.80;92.50
47546;DHT22;50104;52.002;4.688;2022-12-29T06:45:50;9.70;92.40
47546;DHT22;50104;52.002;4.688;2022-12-29T06:50:51;9.70;92.20
47546;DHT22;50104;52.002;4.688;2022-12-29T06:55:52;9.70;92.20
47546;DHT22;50104;52.002;4.688;2022-12-29T07:00:53;9.60;92.10
47546;DHT22;50104;52.002;4.688;2022-12-29T07:05:53;9.60;91.90
47546;DHT22;50104;52.002;4.688;2022-12-29T07:10:55;9.50;91.80
47546;DHT22;50104;52.002;4.688;2022-12-29T07:15:55;9.50;91.80
47546;DHT22;50104;52.002;4.688;2022-12-29T07:20:56;9.40;92.00
47546;DHT22;50104;52.002;4.688;2022-12-29T07:26:05;9.40;92.20
47546;DHT22;50104;52.002;4.688;2022-12-29T07:31:14;9.40;92.30
47546;DHT22;50104;52.002;4.688;2022-12-29T07:36:17;9.40;92.60
47546;DHT22;50104;52.002;4.688;2022-12-29T07:41:17;9.40;92.80
47546;DHT22;50104;52.002;4.688;2022-12-29T07:46:18;9.40;92.90
47546;DHT22;50104;52.002;4.688;2022-12-29T07:51:19;9.40;92.80
47546;DHT22;50104;52.002;4.688;2022-12-29T07:56:20;9.40;92.70
47546;DHT22;50104;52.002;4.688;2022-12-29T08:01:21;9.40;92.70
47546;DHT22;50104;52.002;4.688;2022-12-29T08:06:23;9.40;92.60
47546;DHT22;50104;52.002;4.688;2022-12-29T08:11:24;9.50;92.40
47546;DHT22;50104;52.002;4.688;2022-12-29T08:16:25;9.50;92.50
47546;DHT22;50104;52.002;4.688;2022-12-29T08:21:27;9.50;92.20
47546;DHT22;50104;52.002;4.688;2022-12-29T08:26:28;9.50;92.10
47546;DHT22;50104;52.002;4.688;2022-12-29T08:31:29;9.40;92.20
47546;DHT22;50104;52.002;4.688;2022-12-29T08:36:30;9.50;92.20
47546;DHT22;50104;52.002;4.688;2022-12-29T08:41:31;9.50;92.40
47546;DHT22;50104;52.002;4.688;2022-12-29T08:46:32;9.40;92.60
47546;DHT22;50104;52.002;4.688;2022-12-29T08:51:32;9.40;92.80
47546;DHT22;50104;52.002;4.688;2022-12-29T08:56:33;9.40;92.90
47546;DHT22;50104;52.002;4.688;2022-12-29T09:01:34;9.40;93.00
47546;DHT22;50104;52.002;4.688;2022-12-29T09:06:36;9.50;93.10
47546;DHT22;50104;52.002;4.688;2022-12-29T09:11:37;9.50;93.10
47546;DHT22;50104;52.002;4.688;2022-12-29T09:16:38;9.50;93.20
47546;DHT22;50104;52.002;4.688;2022-12-29T09:21:39;9.50;93.20
47546;DHT22;50104;52.002;4.688;2022-12-29T09:26:40;9.50;93.20
47546;DHT22;50104;52.002;4.688;2022-12-29T09:31:41;9.50;93.30
47546;DHT22;50104;52.002;4.688;2022-12-29T09:36:42;9.50;93.40
47546;DHT22;50104;52.002;4.688;2022-12-29T09:42:00;9.50;93.70
47546;DHT22;50104;52.002;4.688;2022-12-29T09:47:19;9.50;93.70
47546;DHT22;50104;52.002;4.688;2022-12-29T09:52:31;9.50;93.80
47546;DHT22;50104;52.002;4.688;2022-12-29T09:57:43;9.50;93.90
47546;DHT22;50104;52.002;4.688;2022-12-29T10:02:54;9.50;94.00
47546;DHT22;50104;52.002;4.688;2022-12-29T10:08:30;9.50;94.00
47546;DHT22;50104;52.002;4.688;2022-12-29T10:13:55;9.60;94.00
47546;DHT22;50104;52.002;4.688;2022-12-29T10:20:02;9.60;94.00
47546;DHT22;50104;52.002;4.688;2022-12-29T10:25:19;9.60;94.00
47546;DHT22;50104;52.002;4.688;2022-12-29T10:30:22;9.70;94.00
47546;DHT22;50104;52.002;4.688;2022-12-29T10:35:31;9.70;94.10
47546;DHT22;50104;52.002;4.688;2022-12-29T10:45:44;9.80;94.00
47546;DHT22;50104;52.002;4.688;2022-12-29T10:50:45;9.80;94.10
47546;DHT22;50104;52.002;4.688;2022-12-29T10:55:46;9.80;94.10
47546;DHT22;50104;52.002;4.688;2022-12-29T11:00:52;9.90;94.30
47546;DHT22;50104;52.002;4.688;2022-12-29T11:11:08;10.00;93.90
47546;DHT22;50104;52.002;4.688;2022-12-29T11:16:11;10.00;93.70
47546;DHT22;50104;52.002;4.688;2022-12-29T11:21:34;10.10;93.80
47546;DHT22;50104;52.002;4.688;2022-12-29T11:26:43;10.10;93.70
47546;DHT22;50104;52.002;4.688;2022-12-29T11:31:50;10.20;93.60
47546;DHT22;50104;52.002;4.688;2022-12-29T11:37:05;10.20;93.40
47546;DHT22;50104;52.002;4.688;2022-12-29T11:42:16;10.30;93.30
47546;DHT22;50104;52.002;4.688;2022-12-29T11:47:31;10.30;93.20
47546;DHT22;50104;52.002;4.688;2022-12-29T11:52:35;10.30;93.20
47546;DHT22;50104;52.002;4.688;2022-12-29T11:57:41;10.30;92.60
47546;DHT22;50104;52.002;4.688;2022-12-29T12:02:50;10.30;92.40
47546;DHT22;50104;52.002;4.688;2022-12-29T12:08:00;10.30;92.20
47546;DHT22;50104;52.002;4.688;2022-12-29T12:18:55;10.30;92.60
47546;DHT22;50104;52.002;4.688;2022-12-29T12:34:47;10.40;92.40
47546;DHT22;50104;52.002;4.688;2022-12-29T12:51:47;10.50;92.10
47546;DHT22;50104;52.002;4.688;2022-12-29T13:03:17;10.50;91.90
47546;DHT22;50104;52.002;4.688;2022-12-29T13:19:41;10.60;91.70
47546;DHT22;50104;52.002;4.688;2022-12-29T13:35:23;10.70;91.40
47546;DHT22;50104;52.002;4.688;2022-12-29T13:40:36;10.70;91.50
47546;DHT22;50104;52.002;4.688;2022-12-29T13:45:40;10.70;91.30
47546;DHT22;50104;52.002;4.688;2022-12-29T13:50:47;10.60;91.00
47546;DHT22;50104;52.002;4.688;2022-12-29T13:56:11;10.50;90.80
47546;DHT22;50104;52.002;4.688;2022-12-29T14:01:35;10.50;90.80
47546;DHT22;50104;52.002;4.688;2022-12-29T14:06:39;10.50;90.70
47546;DHT22;50104;52.002;4.688;2022-12-29T14:11:43;10.40;90.70
47546;DHT22;50104;52.002;4.688;2022-12-29T14:16:44;10.40;90.80
47546;DHT22;50104;52.002;4.688;2022-12-29T14:21:55;10.30;90.80
47546;DHT22;50104;52.002;4.688;2022-12-29T14:26:57;10.30;90.80
47546;DHT22;50104;52.002;4.688;2022-12-29T14:31:58;10.20;91.10
47546;DHT22;50104;52.002;4.688;2022-12-29T14:37:01;10.20;91.30
47546;DHT22;50104;52.002;4.688;2022-12-29T14:47:31;10.20;91.50
47546;DHT22;50104;52.002;4.688;2022-12-29T14:52:47;10.10;91.60
47546;DHT22;50104;52.002;4.688;2022-12-29T14:57:56;10.10;91.50
47546;DHT22;50104;52.002;4.688;2022-12-29T15:03:07;10.10;91.70
47546;DHT22;50104;52.002;4.688;2022-12-29T15:08:18;10.10;91.60
47546;DHT22;50104;52.002;4.688;2022-12-29T15:13:24;10.10;91.60
47546;DHT22;50104;52.002;4.688;2022-12-29T15:18:33;10.10;91.70
47546;DHT22;50104;52.002;4.688;2022-12-29T15:23:34;10.10;91.60
47546;DHT22;50104;52.002;4.688;2022-12-29T15:33:48;10.00;91.80
47546;DHT22;50104;52.002;4.688;2022-12-29T15:38:51;10.00;91.50
47546;DHT22;50104;52.002;4.688;2022-12-29T15:44:29;10.00;91.40
47546;DHT22;50104;52.002;4.688;2022-12-29T15:49:24;10.00;91.50
47546;DHT22;50104;52.002;4.688;2022-12-29T15:54:30;10.00;91.50
47546;DHT22;50104;52.002;4.688;2022-12-29T15:59:33;9.90;91.40
47546;DHT22;50104;52.002;4.688;2022-12-29T16:04:34;9.90;91.40
47546;DHT22;50104;52.002;4.688;2022-12-29T16:09:42;9.80;91.30
47546;DHT22;50104;52.002;4.688;2022-12-29T16:14:47;9.80;91.10
47546;DHT22;50104;52.002;4.688;2022-12-29T16:19:54;9.80;90.80
47546;DHT22;50104;52.002;4.688;2022-12-29T16:25:00;9.70;90.70
47546;DHT22;50104;52.002;4.688;2022-12-29T16:30:06;9.60;90.60
47546;DHT22;50104;52.002;4.688;2022-12-29T16:35:27;9.50;90.60
47546;DHT22;50104;52.002;4.688;2022-12-29T16:40:53;9.50;90.60
47546;DHT22;50104;52.002;4.688;2022-12-29T16:51:23;9.40;90.70
47546;DHT22;50104;52.002;4.688;2022-12-29T16:56:33;9.30;90.80
47546;DHT22;50104;52.002;4.688;2022-12-29T17:01:37;9.30;90.80
47546;DHT22;50104;52.002;4.688;2022-12-29T17:06:39;9.20;90.80
47546;DHT22;50104;52.002;4.688;2022-12-29T17:11:40;9.20;90.60
47546;DHT22;50104;52.002;4.688;2022-12-29T17:16:56;9.10;90.60
47546;DHT22;50104;52.002;4.688;2022-12-29T17:21:57;9.00;90.50
47546;DHT22;50104;52.002;4.688;2022-12-29T17:26:58;9.00;90.50
47546;DHT22;50104;52.002;4.688;2022-12-29T17:32:01;8.90;90.60
47546;DHT22;50104;52.002;4.688;2022-12-29T17:37:26;8.90;90.60
47546;DHT22;50104;52.002;4.688;2022-12-29T17:42:29;8.80;90.70
47546;DHT22;50104;52.002;4.688;2022-12-29T17:47:32;8.80;90.90
47546;DHT22;50104;52.002;4.688;2022-12-29T17:52:32;8.70;90.90
47546;DHT22;50104;52.002;4.688;2022-12-29T17:57:33;8.70;90.80
47546;DHT22;50104;52.002;4.688;2022-12-29T18:02:34;8.70;90.80
47546;DHT22;50104;52.002;4.688;2022-12-29T18:07:36;8.70;90.80
47546;DHT22;50104;52.002;4.688;2022-12-29T18:12:39;8.60;90.80
47546;DHT22;50104;52.002;4.688;2022-12-29T18:17:41;8.60;90.80
47546;DHT22;50104;52.002;4.688;2022-12-29T18:22:42;8.50;90.80
47546;DHT22;50104;52.002;4.688;2022-12-29T18:27:43;8.50;91.00
47546;DHT22;50104;52.002;4.688;2022-12-29T18:32:43;8.40;91.10
47546;DHT22;50104;52.002;4.688;2022-12-29T18:37:44;8.40;91.10
47546;DHT22;50104;52.002;4.688;2022-12-29T18:42:45;8.40;91.30
47546;DHT22;50104;52.002;4.688;2022-12-29T18:47:46;8.40;91.40
47546;DHT22;50104;52.002;4.688;2022-12-29T18:52:46;8.40;91.50
47546;DHT22;50104;52.002;4.688;2022-12-29T18:57:48;8.40;91.40
47546;DHT22;50104;52.002;4.688;2022-12-29T19:02:50;8.40;91.50
47546;DHT22;50104;52.002;4.688;2022-12-29T19:07:52;8.30;91.50
47546;DHT22;50104;52.002;4.688;2022-12-29T19:12:53;8.40;91.50
47546;DHT22;50104;52.002;4.688;2022-12-29T19:17:56;8.30;91.40
47546;DHT22;50104;52.002;4.688;2022-12-29T19:23:00;8.30;91.40
47546;DHT22;50104;52.002;4.688;2022-12-29T19:28:03;8.30;91.30
47546;DHT22;50104;52.002;4.688;2022-12-29T19:33:05;8.30;91.30
47546;DHT22;50104;52.002;4.688;2022-12-29T19:38:06;8.20;91.40
47546;DHT22;50104;52.002;4.688;2022-12-29T19:43:09;8.20;91.40
47546;DHT22;50104;52.002;4.688;2022-12-29T19:48:14;8.20;91.20
47546;DHT22;50104;52.002;4.688;2022-12-29T19:53:15;8.20;91.20
47546;DHT22;50104;52.002;4.688;2022-12-29T19:58:16;8.10;91.20
47546;DHT22;50104;52.002;4.688;2022-12-29T20:03:17;8.10;91.20
47546;DHT22;50104;52.002;4.688;2022-12-29T20:08:18;8.00;91.30
47546;DHT22;50104;52.002;4.688;2022-12-29T20:13:19;8.00;91.40
47546;DHT22;50104;52.002;4.688;2022-12-29T20:18:20;8.00;91.40
47546;DHT22;50104;52.002;4.688;2022-12-29T20:23:20;8.00;91.60
47546;DHT22;50104;52.002;4.688;2022-12-29T20:28:21;7.90;91.60
47546;DHT22;50104;52.002;4.688;2022-12-29T20:33:22;7.90;91.70
47546;DHT22;50104;52.002;4.688;2022-12-29T20:38:23;7.90;91.60
47546;DHT22;50104;52.002;4.688;2022-12-29T20:43:24;7.90;91.50
47546;DHT22;50104;52.002;4.688;2022-12-29T20:48:25;7.80;91.50
47546;DHT22;50104;52.002;4.688;2022-12-29T20:53:28;7.80;91.60
47546;DHT22;50104;52.002;4.688;2022-12-29T20:58:30;7.80;91.70
47546;DHT22;50104;52.002;4.688;2022-12-29T21:03:31;7.80;91.80
47546;DHT22;50104;52.002;4.688;2022-12-29T21:08:32;7.80;92.00
47546;DHT22;50104;52.002;4.688;2022-12-29T21:13:32;7.80;92.00
47546;DHT22;50104;52.002;4.688;2022-12-29T21:18:34;7.80;92.00
47546;DHT22;50104;52.002;4.688;2022-12-29T21:23:37;7.80;92.10
47546;DHT22;50104;52.002;4.688;2022-12-29T21:28:40;7.80;92.00
47546;DHT22;50104;52.002;4.688;2022-12-29T21:33:41;7.70;92.00
47546;DHT22;50104;52.002;4.688;2022-12-29T21:38:41;7.70;91.80
47546;DHT22;50104;52.002;4.688;2022-12-29T21:43:43;7.70;91.90
47546;DHT22;50104;52.002;4.688;2022-12-29T21:49:04;7.70;91.90
47546;DHT22;50104;52.002;4.688;2022-12-29T21:54:05;7.70;91.90
47546;DHT22;50104;52.002;4.688;2022-12-29T21:59:24;7.70;91.80
47546;DHT22;50104;52.002;4.688;2022-12-29T22:04:44;7.60;91.70
47546;DHT22;50104;52.002;4.688;2022-12-29T22:10:03;7.60;91.60
47546;DHT22;50104;52.002;4.688;2022-12-29T22:15:23;7.60;91.60
47546;DHT22;50104;52.002;4.688;2022-12-29T22:20:26;7.50;91.60
47546;DHT22;50104;52.002;4.688;2022-12-29T22:25:28;7.50;91.70
47546;DHT22;50104;52.002;4.688;2022-12-29T22:30:29;7.50;91.60
47546;DHT22;50104;52.002;4.688;2022-12-29T22:35:30;7.40;91.70
47546;DHT22;50104;52.002;4.688;2022-12-29T22:40:31;7.40;91.80
47546;DHT22;50104;52.002;4.688;2022-12-29T22:45:31;7.40;91.90
47546;DHT22;50104;52.002;4.688;2022-12-29T22:50:32;7.30;91.90
47546;DHT22;50104;52.002;4.688;2022-12-29T22:55:33;7.30;91.80
47546;DHT22;50104;52.002;4.688;2022-12-29T23:00:34;7.30;91.80
47546;DHT22;50104;52.002;4.688;2022-12-29T23:05:34;7.30;91.70
47546;DHT22;50104;52.002;4.688;2022-12-29T23:10:35;7.30;91.70
47546;DHT22;50104;52.002;4.688;2022-12-29T23:15:36;7.20;91.80
47546;DHT22;50104;52.002;4.688;2022-12-29T23:20:37;7.20;91.90
47546;DHT22;50104;52.002;4.688;2022-12-29T23:25:38;7.20;92.00
47546;DHT22;50104;52.002;4.688;2022-12-29T23:30:39;7.20;92.10
47546;DHT22;50104;52.002;4.688;2022-12-29T23:35:40;7.20;92.10
47546;DHT22;50104;52.002;4.688;2022-12-29T23:40:41;7.20;92.10
47546;DHT22;50104;52.002;4.688;2022-12-29T23:45:41;7.20;92.10
47546;DHT22;50104;52.002;4.688;2022-12-29T23:50:42;7.20;92.00
47546;DHT22;50104;52.002;4.688;2022-12-29T23:55:43;7.10;92.20
